createdAt,value
2017-05-25T00:02:39.653Z,1017.35
2017-05-25T00:07:35.269Z,1017.34
2017-05-25T00:12:32.310Z,1017.32
2017-05-25T00:17:27.949Z,1017.31
2017-05-25T00:22:26.033Z,1017.32
2017-05-25T00:27:21.175Z,1017.27
2017-05-25T00:32:17.075Z,1017.19
2017-05-25T00:37:12.912Z,1017.28
2017-05-25T00:42:09.019Z,1017.35
2017-05-25T00:47:04.644Z,1017.25
2017-05-25T00:52:00.295Z,1017.26
2017-05-25T00:56:56.242Z,1017.17
2017-05-25T01:01:52.243Z,1017.12
2017-05-25T01:06:47.943Z,1017.22
2017-05-25T01:11:44.102Z,1017.25
2017-05-25T01:16:40.247Z,1017.33
2017-05-25T01:21:36.052Z,1017.36
2017-05-25T01:26:31.548Z,1017.47
2017-05-25T01:31:27.641Z,1017.44
2017-05-25T01:36:23.330Z,1017.50
2017-05-25T01:41:19.375Z,1017.40
2017-05-25T01:46:15.750Z,1017.30
2017-05-25T01:51:11.164Z,1017.33
2017-05-25T01:56:09.693Z,1017.36
2017-05-25T02:01:04.335Z,1017.40
2017-05-25T02:06:00.576Z,1017.25
2017-05-25T02:10:56.182Z,1017.18
2017-05-25T02:15:52.037Z,1017.14
2017-05-25T02:20:47.659Z,1017.16
2017-05-25T02:25:43.524Z,1017.13
2017-05-25T02:30:39.179Z,1017.26
2017-05-25T02:35:34.811Z,1017.13
2017-05-25T02:40:30.868Z,1017.24
2017-05-25T02:45:26.926Z,1017.25
2017-05-25T02:50:22.671Z,1017.29
2017-05-25T02:55:18.600Z,1017.21
2017-05-25T03:00:14.485Z,1017.30
2017-05-25T03:05:10.143Z,1017.18
2017-05-25T03:10:05.706Z,1017.19
2017-05-25T03:15:01.588Z,1017.23
2017-05-25T03:19:57.255Z,1017.33
2017-05-25T03:24:53.210Z,1017.49
2017-05-25T03:29:49.061Z,1017.50
2017-05-25T03:34:44.906Z,1017.47
2017-05-25T03:39:41.562Z,1017.50
2017-05-25T03:44:37.297Z,1017.50
2017-05-25T03:49:33.235Z,1017.52
2017-05-25T03:54:28.901Z,1017.54
2017-05-25T03:59:25.005Z,1017.53
2017-05-25T04:04:21.803Z,1017.49
2017-05-25T04:09:17.254Z,1017.42
2017-05-25T04:14:13.013Z,1017.50
2017-05-25T04:19:09.819Z,1017.51
2017-05-25T04:24:05.267Z,1017.58
2017-05-25T04:29:01.278Z,1017.63
2017-05-25T04:33:57.255Z,1017.66
2017-05-25T04:38:53.418Z,1017.66
2017-05-25T04:43:50.099Z,1017.71
2017-05-25T04:48:45.618Z,1017.84
2017-05-25T04:53:42.255Z,1017.72
2017-05-25T04:58:37.597Z,1017.69
2017-05-25T05:03:33.774Z,1017.71
2017-05-25T05:08:29.366Z,1017.78
2017-05-25T05:13:25.497Z,1017.79
2017-05-25T05:18:21.175Z,1017.91
2017-05-25T05:23:17.010Z,1018.01
2017-05-25T05:28:12.872Z,1018.04
2017-05-25T05:33:08.836Z,1018.04
2017-05-25T05:38:04.033Z,1018.00
2017-05-25T05:43:00.602Z,1018.03
2017-05-25T05:47:56.380Z,1018.02
2017-05-25T05:52:52.481Z,1018.08
2017-05-25T05:57:48.461Z,1018.09
2017-05-25T06:02:45.672Z,1018.22
2017-05-25T06:07:41.808Z,1018.17
2017-05-25T06:12:37.647Z,1018.12
2017-05-25T06:17:33.492Z,1018.14
2017-05-25T06:22:29.782Z,1018.15
2017-05-25T06:27:25.912Z,1018.27
2017-05-25T06:32:22.275Z,1018.28
2017-05-25T06:37:18.562Z,1018.28
2017-05-25T06:42:14.350Z,1018.43
2017-05-25T06:47:09.691Z,1018.38
2017-05-25T06:52:06.911Z,1018.33
2017-05-25T06:57:02.352Z,1018.23
2017-05-25T07:01:58.775Z,1018.34
2017-05-25T07:06:54.816Z,1018.42
2017-05-25T07:11:51.203Z,1018.47
2017-05-25T07:16:46.841Z,1018.54
2017-05-25T07:21:42.258Z,1018.54
2017-05-25T07:26:38.151Z,1018.56
2017-05-25T07:31:34.627Z,1018.56
2017-05-25T07:36:30.596Z,1018.59
2017-05-25T07:41:26.553Z,1018.62
2017-05-25T07:46:23.208Z,1018.53
2017-05-25T07:51:23.898Z,1018.66
2017-05-25T07:56:21.121Z,1018.62
2017-05-25T08:01:16.329Z,1018.67
2017-05-25T08:06:12.066Z,1018.60
2017-05-25T08:11:07.485Z,1018.68
2017-05-25T08:16:07.758Z,1018.70
2017-05-25T08:21:02.628Z,1018.72
2017-05-25T08:26:01.942Z,1018.60
2017-05-25T08:31:00.583Z,1018.71
2017-05-25T08:35:58.844Z,1018.73
2017-05-25T08:40:53.606Z,1018.61
2017-05-25T08:45:48.873Z,1018.63
2017-05-25T08:50:46.502Z,1018.83
2017-05-25T09:00:49.225Z,1018.79
2017-05-25T09:05:48.106Z,1018.79
2017-05-25T09:10:45.200Z,1018.74
2017-05-25T09:15:40.949Z,1018.90
2017-05-25T09:20:37.764Z,1018.75
2017-05-25T09:25:33.600Z,1018.72
2017-05-25T09:30:30.178Z,1018.77
2017-05-25T09:35:28.368Z,1018.76
2017-05-25T09:40:25.013Z,1018.73
2017-05-25T09:45:21.319Z,1018.74
2017-05-25T09:50:18.993Z,1018.73
2017-05-25T09:55:14.716Z,1018.73
2017-05-25T10:00:11.599Z,1018.64
2017-05-25T10:05:07.414Z,1018.52
2017-05-25T10:10:04.733Z,1018.60
2017-05-25T10:15:00.729Z,1018.57
2017-05-25T10:19:57.091Z,1018.67
2017-05-25T10:24:53.543Z,1018.63
2017-05-25T10:29:50.238Z,1018.60
2017-05-25T10:34:46.132Z,1018.68
2017-05-25T10:39:41.268Z,1018.52
2017-05-25T10:44:37.532Z,1018.36
2017-05-25T10:49:34.188Z,1018.42
2017-05-25T10:54:31.501Z,1018.43
2017-05-25T10:59:27.023Z,1018.37
2017-05-25T11:04:23.886Z,1018.21
2017-05-25T11:09:21.198Z,1018.23
2017-05-25T11:14:17.938Z,1018.18
2017-05-25T11:19:14.696Z,1018.15
2017-05-25T11:24:11.205Z,1018.27
2017-05-25T11:29:07.366Z,1018.11
2017-05-25T11:34:03.945Z,1018.11
2017-05-25T11:39:00.460Z,1018.13
2017-05-25T11:43:56.611Z,1018.13
2017-05-25T11:48:54.404Z,1018.13
2017-05-25T11:53:51.470Z,1018.11
2017-05-25T11:58:47.598Z,1018.08
2017-05-25T12:03:43.830Z,1018.08
2017-05-25T12:08:39.697Z,1018.05
2017-05-25T12:13:35.431Z,1017.97
2017-05-25T12:18:31.483Z,1017.92
2017-05-25T12:23:28.701Z,1018.05
2017-05-25T12:28:24.536Z,1017.95
2017-05-25T12:33:20.685Z,1017.89
2017-05-25T12:38:16.574Z,1017.87
2017-05-25T12:43:15.751Z,1017.78
2017-05-25T12:48:11.578Z,1017.84
2017-05-25T12:53:07.292Z,1017.65
2017-05-25T12:58:03.848Z,1017.65
2017-05-25T13:02:59.471Z,1017.77
2017-05-25T13:07:54.151Z,1017.76
2017-05-25T13:12:51.020Z,1017.60
2017-05-25T13:17:46.311Z,1017.60
2017-05-25T13:22:40.997Z,1017.66
2017-05-25T13:27:36.058Z,1017.49
2017-05-25T13:32:30.771Z,1017.56
2017-05-25T13:37:25.321Z,1017.55
2017-05-25T13:42:20.771Z,1017.43
2017-05-25T13:47:18.189Z,1017.33
2017-05-25T13:52:13.234Z,1017.31
2017-05-25T13:57:08.432Z,1017.28
2017-05-25T14:02:03.934Z,1017.20
2017-05-25T14:06:59.665Z,1017.09
2017-05-25T14:11:54.879Z,1017.08
2017-05-25T14:16:50.336Z,1017.03
2017-05-25T14:21:45.904Z,1017.14
2017-05-25T14:26:41.499Z,1017.01
2017-05-25T14:31:37.312Z,1017.06
2017-05-25T14:36:33.463Z,1016.94
2017-05-25T14:41:30.072Z,1016.90
2017-05-25T14:46:25.631Z,1016.94
2017-05-25T14:51:21.643Z,1017.00
2017-05-25T14:56:17.877Z,1016.92
2017-05-25T15:01:13.659Z,1016.85
2017-05-25T15:06:10.133Z,1016.84
2017-05-25T15:11:05.727Z,1016.79
2017-05-25T15:16:01.999Z,1016.77
2017-05-25T15:21:00.794Z,1016.87
2017-05-25T15:25:56.361Z,1016.87
2017-05-25T15:30:52.306Z,1016.92
2017-05-25T15:35:48.374Z,1016.79
2017-05-25T15:40:47.116Z,1016.73
2017-05-25T15:45:42.239Z,1016.72
2017-05-25T15:50:39.236Z,1016.73
2017-05-25T15:55:34.954Z,1016.66
2017-05-25T16:00:32.922Z,1016.56
2017-05-25T16:05:28.321Z,1016.62
2017-05-25T16:10:24.519Z,1016.53
2017-05-25T16:15:20.641Z,1016.48
2017-05-25T16:20:16.661Z,1016.46
2017-05-25T16:25:13.487Z,1016.46
2017-05-25T16:30:09.666Z,1016.43
2017-05-25T16:35:05.129Z,1016.50
2017-05-25T16:40:00.829Z,1016.43
2017-05-25T16:44:57.295Z,1016.42
2017-05-25T16:54:59.113Z,1016.41
2017-05-25T17:04:56.708Z,1016.33
2017-05-25T17:09:55.543Z,1016.25
2017-05-25T17:14:51.678Z,1016.18
2017-05-25T17:19:47.530Z,1016.25
2017-05-25T17:24:43.636Z,1016.28
2017-05-25T17:34:42.206Z,1016.38
2017-05-25T17:39:40.145Z,1016.43
2017-05-25T17:44:35.163Z,1016.41
2017-05-25T17:49:34.587Z,1016.25
2017-05-25T17:54:30.721Z,1016.30
2017-05-25T17:59:27.842Z,1016.29
2017-05-25T18:04:26.072Z,1016.33
2017-05-25T18:09:22.152Z,1016.31
2017-05-25T18:14:17.296Z,1016.24
2017-05-25T18:19:19.273Z,1016.29
2017-05-25T18:24:13.539Z,1016.21
2017-05-25T18:29:09.848Z,1016.24
2017-05-25T18:34:06.538Z,1016.26
2017-05-25T18:39:02.039Z,1016.18
2017-05-25T18:49:03.810Z,1016.22
2017-05-25T18:54:02.787Z,1016.31
2017-05-25T18:58:59.838Z,1016.33
2017-05-25T19:04:01.525Z,1016.39
2017-05-25T19:13:58.957Z,1016.45
2017-05-25T19:18:55.849Z,1016.51
2017-05-25T19:24:00.533Z,1016.47
2017-05-25T19:28:54.739Z,1016.46
2017-05-25T19:33:51.830Z,1016.57
2017-05-25T19:38:48.895Z,1016.57
2017-05-25T19:48:44.622Z,1016.63
2017-05-25T19:53:40.419Z,1016.63
2017-05-25T19:58:36.223Z,1016.70
2017-05-25T20:03:32.083Z,1016.72
2017-05-25T20:08:30.001Z,1016.74
2017-05-25T20:13:32.455Z,1016.81
2017-05-25T20:23:33.487Z,1016.81
2017-05-25T20:28:32.210Z,1016.84
2017-05-25T20:33:27.470Z,1016.94
2017-05-25T20:38:24.844Z,1016.86
2017-05-25T20:48:23.538Z,1016.89
2017-05-25T20:53:19.619Z,1016.90
2017-05-25T21:03:17.858Z,1016.94
2017-05-25T21:13:14.102Z,1016.82
2017-05-25T21:18:12.199Z,1016.85
2017-05-25T21:28:16.329Z,1016.76
2017-05-25T21:33:12.708Z,1016.81
2017-05-25T21:43:10.835Z,1016.77
2017-05-25T21:48:06.710Z,1016.80
2017-05-25T21:53:04.064Z,1016.81
2017-05-25T21:58:00.364Z,1016.80
2017-05-25T22:07:56.378Z,1016.82
2017-05-25T22:12:52.921Z,1016.88
2017-05-25T22:17:49.180Z,1016.89
2017-05-25T22:32:50.374Z,1016.99
2017-05-25T22:37:46.268Z,1016.92
2017-05-25T22:42:42.819Z,1017.02
2017-05-25T22:47:42.243Z,1016.97
2017-05-25T22:52:37.575Z,1016.95
2017-05-25T22:57:35.178Z,1016.96
2017-05-25T23:02:30.972Z,1016.91
2017-05-25T23:07:28.073Z,1016.89
2017-05-25T23:12:23.703Z,1016.90
2017-05-25T23:17:19.308Z,1016.80
2017-05-25T23:22:16.534Z,1016.81
2017-05-25T23:27:12.434Z,1016.85
2017-05-25T23:32:08.856Z,1016.78
2017-05-25T23:37:06.505Z,1016.79
2017-05-25T23:42:05.451Z,1016.75
2017-05-25T23:47:01.187Z,1016.79
2017-05-25T23:57:01.265Z,1016.78
